Time,TemperatureF,DewpointF,PressureIn,WindDirection,WindDirectionDegrees,WindSpeedMPH,WindSpeedGustMPH,Humidity,HourlyPrecipIn,Conditions,Clouds,dailyrainin,SoftwareType,DateUTC
2014-08-27 00:02:00,62.4,61.0,30.00,NW,306,0.0,0.0,95,0.00,,---,0.00,VWS V14.00,2014-08-27 05:02:00,
2014-08-27 00:07:00,62.5,61.3,30.00,NW,306,0.0,0.0,96,0.00,,---,0.00,VWS V14.00,2014-08-27 05:07:00,
2014-08-27 00:12:00,62.6,61.5,30.00,NW,306,0.0,0.0,96,0.00,,---,0.00,VWS V14.00,2014-08-27 05:12:00,
2014-08-27 00:17:00,62.6,61.2,30.00,NW,306,0.0,0.0,95,0.00,,---,0.00,VWS V14.00,2014-08-27 05:17:00,
2014-08-27 00:22:00,62.5,61.0,30.00,NW,306,0.0,0.0,95,0.00,,---,0.00,VWS V14.00,2014-08-27 05:22:00,
2014-08-27 00:27:00,62.5,61.0,30.00,NW,306,0.0,0.0,95,0.00,,---,0.00,VWS V14.00,2014-08-27 05:27:00,
2014-08-27 00:32:00,62.5,61.0,30.00,NW,306,0.0,0.0,95,0.00,,---,0.00,VWS V14.00,2014-08-27 05:32:00,
2014-08-27 00:37:00,62.5,61.3,30.00,NW,306,0.0,0.0,96,0.00,,---,0.00,VWS V14.00,2014-08-27 05:37:00,
2014-08-27 00:42:00,62.6,61.5,30.00,NW,306,0.0,0.0,96,0.00,,---,0.00,VWS V14.00,2014-08-27 05:42:00,
2014-08-27 00:47:00,62.6,61.5,30.01,NW,306,0.0,0.0,96,0.00,,---,0.00,VWS V14.00,2014-08-27 05:47:00,
2014-08-27 00:52:00,62.6,61.5,30.00,NW,306,0.0,0.0,96,0.00,,---,0.00,VWS V14.00,2014-08-27 05:52:00,
2014-08-27 00:57:00,62.7,61.5,30.00,NW,306,0.0,0.0,96,0.00,,---,0.00,VWS V14.00,2014-08-27 05:57:00,
2014-08-27 01:02:00,62.7,61.5,30.00,NW,306,0.0,0.0,96,0.00,,---,0.00,VWS V14.00,2014-08-27 06:02:00,
2014-08-27 01:07:00,62.7,61.5,30.00,NW,306,0.0,0.0,96,0.00,,---,0.00,VWS V14.00,2014-08-27 06:07:00,
2014-08-27 01:12:00,62.8,61.3,30.00,NW,306,0.0,0.0,95,0.00,,---,0.00,VWS V14.00,2014-08-27 06:12:00,
2014-08-27 01:17:00,62.8,61.3,30.00,NW,306,0.0,0.0,95,0.00,,---,0.00,VWS V14.00,2014-08-27 06:17:00,
2014-08-27 01:22:00,62.8,61.3,30.00,NW,306,0.0,0.0,95,0.00,,---,0.00,VWS V14.00,2014-08-27 06:22:00,
2014-08-27 01:27:00,62.8,61.3,30.00,NW,306,0.0,0.0,95,0.00,,---,0.00,VWS V14.00,2014-08-27 06:27:00,
2014-08-27 01:32:00,62.9,61.5,30.00,NW,306,0.0,0.0,95,0.00,,---,0.00,VWS V14.00,2014-08-27 06:32:00,
2014-08-27 01:37:00,63.0,61.8,30.00,NW,306,0.0,0.0,96,0.00,,---,0.00,VWS V14.00,2014-08-27 06:37:00,
2014-08-27 01:42:00,63.0,61.8,30.00,NW,306,0.0,0.0,96,0.00,,---,0.00,VWS V14.00,2014-08-27 06:42:00,
2014-08-27 01:47:00,62.9,61.8,30.00,NW,306,0.0,0.0,96,0.00,,---,0.00,VWS V14.00,2014-08-27 06:47:00,
2014-08-27 01:52:00,63.0,61.8,30.00,NW,306,0.0,0.0,96,0.00,,---,0.00,VWS V14.00,2014-08-27 06:52:00,
2014-08-27 01:57:00,62.9,61.5,30.01,NW,306,0.0,0.0,95,0.00,,---,0.00,VWS V14.00,2014-08-27 06:57:00,
2014-08-27 02:02:00,62.9,61.5,30.01,NW,306,0.0,0.0,95,0.00,,---,0.00,VWS V14.00,2014-08-27 07:02:00,
2014-08-27 02:08:00,62.9,61.5,30.00,NW,306,0.0,0.0,95,0.00,,---,0.00,VWS V14.00,2014-08-27 07:08:00,
2014-08-27 02:13:00,62.9,61.5,30.01,NW,306,0.0,0.0,95,0.00,,---,0.00,VWS V14.00,2014-08-27 07:13:00,
2014-08-27 02:18:00,62.9,61.5,30.00,NW,306,0.0,0.0,95,0.00,,---,0.00,VWS V14.00,2014-08-27 07:18:00,
2014-08-27 02:23:00,62.9,61.5,30.01,NW,306,0.0,0.0,95,0.00,,---,0.00,VWS V14.00,2014-08-27 07:23:00,
2014-08-27 02:28:00,63.0,61.5,30.01,NW,306,0.0,0.0,95,0.00,,---,0.00,VWS V14.00,2014-08-27 07:28:00,
2014-08-27 02:33:00,62.9,61.5,30.01,NW,306,0.0,0.0,95,0.00,,---,0.00,VWS V14.00,2014-08-27 07:33:00,
2014-08-27 02:38:00,62.9,61.5,30.02,NW,306,0.0,0.0,95,0.00,,---,0.00,VWS V14.00,2014-08-27 07:38:00,
2014-08-27 02:43:00,62.9,61.5,30.02,NW,306,0.0,0.0,95,0.00,,---,0.00,VWS V14.00,2014-08-27 07:43:00,
2014-08-27 02:48:00,62.9,61.5,30.01,NW,306,0.0,0.0,95,0.00,,---,0.00,VWS V14.00,2014-08-27 07:48:00,
2014-08-27 02:53:00,62.9,61.5,30.01,NW,306,0.0,0.0,95,0.00,,---,0.00,VWS V14.00,2014-08-27 07:53:00,
2014-08-27 02:58:00,62.8,61.3,30.01,NW,306,0.0,0.0,95,0.00,,---,0.00,VWS V14.00,2014-08-27 07:58:00,
2014-08-27 03:03:00,62.7,61.2,30.01,NW,306,0.0,0.0,95,0.00,,---,0.00,VWS V14.00,2014-08-27 08:03:00,
2014-08-27 03:08:00,62.7,61.2,30.01,NW,306,0.0,0.0,95,0.00,,---,0.00,VWS V14.00,2014-08-27 08:08:00,
2014-08-27 03:13:00,62.7,61.2,30.01,NW,306,0.0,0.0,95,0.00,,---,0.00,VWS V14.00,2014-08-27 08:13:00,
2014-08-27 03:18:00,62.6,61.2,30.01,NW,306,0.0,0.0,95,0.00,,---,0.00,VWS V14.00,2014-08-27 08:18:00,
2014-08-27 03:23:00,62.5,61.0,30.01,NW,306,0.0,0.0,95,0.00,,---,0.00,VWS V14.00,2014-08-27 08:23:00,
2014-08-27 03:28:00,62.4,61.0,30.01,NW,306,0.0,0.0,95,0.00,,---,0.00,VWS V14.00,2014-08-27 08:28:00,
2014-08-27 03:33:00,62.3,60.8,30.01,NW,306,0.0,0.0,95,0.00,,---,0.00,VWS V14.00,2014-08-27 08:33:00,
2014-08-27 03:38:00,62.2,60.8,30.01,NW,306,0.0,0.0,95,0.00,,---,0.00,VWS V14.00,2014-08-27 08:38:00,
2014-08-27 03:43:00,62.1,60.7,30.01,NW,306,0.0,0.0,95,0.00,,---,0.00,VWS V14.00,2014-08-27 08:43:00,
2014-08-27 03:48:00,62.0,60.6,30.01,NW,306,0.0,0.0,95,0.00,,---,0.00,VWS V14.00,2014-08-27 08:48:00,
2014-08-27 03:53:00,62.0,60.6,30.01,NW,306,0.0,0.0,95,0.00,,---,0.00,VWS V14.00,2014-08-27 08:53:00,
2014-08-27 03:58:00,62.0,60.6,30.01,NW,306,0.0,0.0,95,0.00,,---,0.00,VWS V14.00,2014-08-27 08:58:00,
2014-08-27 04:03:00,62.0,60.6,30.01,NW,306,0.0,0.0,95,0.00,,---,0.00,VWS V14.00,2014-08-27 09:03:00,
2014-08-27 04:08:00,62.0,60.8,30.01,NW,306,0.0,0.0,96,0.00,,---,0.00,VWS V14.00,2014-08-27 09:08:00,
2014-08-27 04:13:00,61.9,60.8,30.01,NW,306,0.0,0.0,96,0.00,,---,0.00,VWS V14.00,2014-08-27 09:13:00,
2014-08-27 04:18:00,62.0,60.8,30.01,NW,306,0.0,0.0,96,0.00,,---,0.00,VWS V14.00,2014-08-27 09:18:00,
2014-08-27 04:23:00,62.1,61.0,30.01,NW,306,0.0,0.0,96,0.00,,---,0.00,VWS V14.00,2014-08-27 09:23:00,
2014-08-27 04:28:00,62.0,60.8,30.01,NW,306,0.0,0.0,96,0.00,,---,0.00,VWS V14.00,2014-08-27 09:28:00,
2014-08-27 04:33:00,61.9,60.8,30.01,NW,306,0.0,0.0,96,0.00,,---,0.00,VWS V14.00,2014-08-27 09:33:00,
2014-08-27 04:38:00,61.7,60.5,30.01,NW,306,0.0,0.0,96,0.00,,---,0.00,VWS V14.00,2014-08-27 09:38:00,
2014-08-27 04:43:00,61.4,60.0,30.01,NW,306,0.0,0.0,95,0.00,,---,0.00,VWS V14.00,2014-08-27 09:43:00,
2014-08-27 04:48:00,61.1,60.0,30.00,NW,306,0.0,0.0,96,0.00,,---,0.00,VWS V14.00,2014-08-27 09:48:00,
2014-08-27 04:53:00,60.9,59.5,30.01,NW,306,0.0,0.0,95,0.00,,---,0.00,VWS V14.00,2014-08-27 09:53:00,
2014-08-27 04:58:00,60.7,59.6,30.01,NW,306,0.0,0.0,96,0.00,,---,0.00,VWS V14.00,2014-08-27 09:58:00,
2014-08-27 05:03:00,60.4,59.3,30.02,NW,306,0.0,0.0,96,0.01,,---,0.01,VWS V14.00,2014-08-27 10:03:00,
2014-08-27 05:08:00,60.1,58.7,30.01,NW,306,0.0,0.0,95,0.01,,---,0.01,VWS V14.00,2014-08-27 10:08:00,
2014-08-27 05:13:00,59.9,58.8,30.01,NW,306,0.0,0.0,96,0.01,,---,0.01,VWS V14.00,2014-08-27 10:13:00,
2014-08-27 05:18:00,59.8,58.7,30.01,NW,306,0.0,0.0,96,0.01,,---,0.01,VWS V14.00,2014-08-27 10:18:00,
2014-08-27 05:23:00,59.6,58.5,30.02,NW,306,0.0,0.0,96,0.01,,---,0.01,VWS V14.00,2014-08-27 10:23:00,
2014-08-27 05:28:00,59.4,58.3,30.02,NW,306,0.0,0.0,96,0.01,,---,0.01,VWS V14.00,2014-08-27 10:28:00,
2014-08-27 05:33:00,59.3,58.2,30.02,NW,306,0.0,0.0,96,0.01,,---,0.01,VWS V14.00,2014-08-27 10:33:00,
2014-08-27 05:38:00,59.2,58.1,30.02,NW,306,0.0,0.0,96,0.01,,---,0.01,VWS V14.00,2014-08-27 10:38:00,
2014-08-27 05:43:00,59.1,58.0,30.03,NW,306,0.0,0.0,96,0.01,,---,0.01,VWS V14.00,2014-08-27 10:43:00,
2014-08-27 05:48:00,59.0,57.9,30.03,NW,306,0.0,0.0,96,0.01,,---,0.01,VWS V14.00,2014-08-27 10:48:00,
2014-08-27 05:53:00,58.8,57.7,30.03,NW,306,0.0,0.0,96,0.01,,---,0.01,VWS V14.00,2014-08-27 10:53:00,
2014-08-27 05:58:00,58.8,57.7,30.04,NW,306,0.0,0.0,96,0.01,,---,0.01,VWS V14.00,2014-08-27 10:58:00,
2014-08-27 06:03:00,58.7,57.6,30.04,NW,306,0.0,0.0,96,0.01,,---,0.01,VWS V14.00,2014-08-27 11:03:00,
2014-08-27 06:08:00,58.5,57.4,30.04,NW,306,0.0,0.0,96,0.00,,---,0.01,VWS V14.00,2014-08-27 11:08:00,
2014-08-27 06:13:00,58.5,57.4,30.04,NW,306,0.0,0.0,96,0.00,,---,0.01,VWS V14.00,2014-08-27 11:13:00,
2014-08-27 06:18:00,58.4,57.3,30.04,NW,306,0.0,0.0,96,0.00,,---,0.01,VWS V14.00,2014-08-27 11:18:00,
2014-08-27 06:23:00,58.4,57.3,30.04,NW,306,0.0,0.0,96,0.00,,---,0.01,VWS V14.00,2014-08-27 11:23:00,
2014-08-27 06:28:00,58.6,57.5,30.04,NW,306,0.0,0.0,96,0.00,,---,0.01,VWS V14.00,2014-08-27 11:28:00,
2014-08-27 06:33:00,58.6,57.5,30.04,NW,306,0.0,0.0,96,0.00,,---,0.01,VWS V14.00,2014-08-27 11:33:00,
2014-08-27 06:38:00,58.6,57.5,30.03,NW,306,0.0,0.0,96,0.00,,---,0.01,VWS V14.00,2014-08-27 11:38:00,
2014-08-27 06:43:00,58.7,57.8,30.03,NW,306,0.0,0.0,97,0.00,,---,0.01,VWS V14.00,2014-08-27 11:43:00,
2014-08-27 06:48:00,58.8,58.0,30.03,NW,306,0.0,0.0,97,0.00,,---,0.01,VWS V14.00,2014-08-27 11:48:00,
2014-08-27 06:53:00,58.9,58.0,30.03,NW,306,0.0,0.0,97,0.00,,---,0.01,VWS V14.00,2014-08-27 11:53:00,
2014-08-27 06:58:00,59.0,58.2,30.03,NW,306,0.0,0.0,97,0.00,,---,0.01,VWS V14.00,2014-08-27 11:58:00,
2014-08-27 07:03:00,59.2,58.3,30.03,NW,306,0.0,0.0,97,0.00,,---,0.01,VWS V14.00,2014-08-27 12:03:00,
2014-08-27 07:08:00,59.8,59.0,30.03,NW,306,0.0,0.0,97,0.00,,---,0.01,VWS V14.00,2014-08-27 12:08:00,
2014-08-27 07:13:00,60.1,59.2,30.03,NW,306,0.0,0.0,97,0.00,,---,0.01,VWS V14.00,2014-08-27 12:13:00,
2014-08-27 07:18:00,60.5,59.7,30.03,NW,306,0.0,0.0,97,0.00,,---,0.01,VWS V14.00,2014-08-27 12:18:00,
2014-08-27 07:23:00,61.1,60.2,30.03,NW,306,0.0,0.0,97,0.00,,---,0.01,VWS V14.00,2014-08-27 12:23:00,
2014-08-27 07:28:00,61.4,60.5,30.03,NW,306,0.0,0.0,97,0.00,,---,0.01,VWS V14.00,2014-08-27 12:28:00,
2014-08-27 07:33:00,61.7,60.8,30.03,NW,306,0.0,0.0,97,0.00,,---,0.01,VWS V14.00,2014-08-27 12:33:00,
2014-08-27 07:38:00,62.1,61.2,30.03,NW,306,0.0,0.0,97,0.00,,---,0.01,VWS V14.00,2014-08-27 12:38:00,
2014-08-27 07:43:00,62.3,61.2,30.03,NW,306,0.0,0.0,96,0.00,,---,0.01,VWS V14.00,2014-08-27 12:43:00,
2014-08-27 07:48:00,62.5,61.3,30.03,NW,306,0.0,0.0,96,0.00,,---,0.01,VWS V14.00,2014-08-27 12:48:00,
2014-08-27 07:53:00,63.0,61.8,30.04,East,92,0.0,0.0,96,0.00,,---,0.01,VWS V14.00,2014-08-27 12:53:00,
2014-08-27 07:58:00,63.7,62.2,30.04,East,92,0.0,0.0,95,0.00,,---,0.01,VWS V14.00,2014-08-27 12:58:00,
2014-08-27 08:03:00,64.2,62.4,30.04,ESE,106,0.0,0.0,94,0.00,,---,0.01,VWS V14.00,2014-08-27 13:03:00,
2014-08-27 08:08:00,64.5,62.1,30.03,ESE,116,0.0,0.0,92,0.00,,---,0.01,VWS V14.00,2014-08-27 13:08:00,
2014-08-27 08:13:00,64.9,62.2,30.04,ESE,116,0.0,0.0,91,0.00,,---,0.01,VWS V14.00,2014-08-27 13:13:00,
2014-08-27 08:18:00,65.2,61.2,30.04,ENE,64,0.0,0.0,87,0.00,,---,0.01,VWS V14.00,2014-08-27 13:18:00,
2014-08-27 08:23:00,65.5,61.5,30.04,NNE,18,0.0,0.0,87,0.00,,---,0.01,VWS V14.00,2014-08-27 13:23:00,
2014-08-27 08:28:00,65.8,61.2,30.04,NE,42,0.0,0.0,85,0.00,,---,0.01,VWS V14.00,2014-08-27 13:28:00,
2014-08-27 08:33:00,66.4,61.4,30.04,NE,42,0.0,0.0,84,0.00,,---,0.01,VWS V14.00,2014-08-27 13:33:00,
2014-08-27 08:38:00,66.3,61.0,30.04,NE,42,0.0,0.0,83,0.00,,---,0.01,VWS V14.00,2014-08-27 13:38:00,
2014-08-27 08:43:00,65.9,60.6,30.05,NE,42,0.0,0.0,83,0.00,,---,0.01,VWS V14.00,2014-08-27 13:43:00,
2014-08-27 08:48:00,66.0,61.0,30.05,NE,36,0.0,0.0,84,0.00,,---,0.01,VWS V14.00,2014-08-27 13:48:00,
2014-08-27 08:53:00,66.2,61.2,30.05,NE,36,0.0,0.0,84,0.00,,---,0.01,VWS V14.00,2014-08-27 13:53:00,
2014-08-27 08:58:00,66.3,61.3,30.05,NE,36,0.0,0.0,84,0.00,,---,0.01,VWS V14.00,2014-08-27 13:58:00,
2014-08-27 09:03:00,65.9,60.6,30.04,North,5,0.0,0.0,83,0.00,,---,0.01,VWS V14.00,2014-08-27 14:03:00,
2014-08-27 09:08:00,66.3,61.7,30.04,NNE,26,0.0,0.0,85,0.00,,---,0.01,VWS V14.00,2014-08-27 14:08:00,
2014-08-27 09:13:00,66.8,61.5,30.04,North,5,0.0,0.0,83,0.00,,---,0.01,VWS V14.00,2014-08-27 14:13:00,
2014-08-27 09:18:00,67.1,61.8,30.04,ENE,59,0.0,0.0,83,0.00,,---,0.01,VWS V14.00,2014-08-27 14:18:00,
2014-08-27 09:23:00,67.5,61.5,30.04,ENE,59,0.0,0.0,81,0.00,,---,0.01,VWS V14.00,2014-08-27 14:23:00,
2014-08-27 09:28:00,67.9,61.9,30.04,ENE,59,0.0,0.0,81,0.00,,---,0.01,VWS V14.00,2014-08-27 14:28:00,
2014-08-27 09:33:00,68.3,62.2,30.03,ENE,76,0.0,0.0,81,0.00,,---,0.01,VWS V14.00,2014-08-27 14:33:00,
2014-08-27 09:38:00,68.4,62.0,30.03,ENE,74,0.0,0.0,80,0.00,,---,0.01,VWS V14.00,2014-08-27 14:38:00,
2014-08-27 09:43:00,68.1,62.1,30.04,ESE,102,0.0,0.0,81,0.00,,---,0.01,VWS V14.00,2014-08-27 14:43:00,
2014-08-27 09:48:00,68.8,63.1,30.04,ESE,117,0.0,0.0,82,0.00,,---,0.01,VWS V14.00,2014-08-27 14:48:00,
2014-08-27 09:53:00,69.5,62.3,30.04,ESE,105,0.0,0.0,78,0.00,,---,0.01,VWS V14.00,2014-08-27 14:53:00,
2014-08-27 09:58:00,69.4,61.5,30.05,ESE,105,0.0,0.0,76,0.00,,---,0.01,VWS V14.00,2014-08-27 14:58:00,
2014-08-27 10:04:00,69.4,61.9,30.05,ESE,105,0.0,0.0,77,0.00,,---,0.01,VWS V14.00,2014-08-27 15:04:00,
2014-08-27 10:09:00,69.7,62.2,30.05,ESE,105,0.0,0.0,77,0.00,,---,0.01,VWS V14.00,2014-08-27 15:09:00,
2014-08-27 10:14:00,69.9,62.4,30.05,ESE,105,0.0,0.0,77,0.00,,---,0.01,VWS V14.00,2014-08-27 15:14:00,
2014-08-27 10:19:00,70.0,62.1,30.05,ESE,105,0.0,0.0,76,0.00,,---,0.01,VWS V14.00,2014-08-27 15:19:00,
2014-08-27 10:24:00,70.6,62.7,30.05,East,98,0.0,1.0,76,0.00,,---,0.01,VWS V14.00,2014-08-27 15:24:00,
2014-08-27 10:29:00,71.1,62.8,30.06,East,98,0.0,0.0,75,0.00,,---,0.01,VWS V14.00,2014-08-27 15:29:00,
2014-08-27 10:34:00,71.4,61.9,30.06,ENE,72,0.0,1.0,72,0.00,,---,0.01,VWS V14.00,2014-08-27 15:34:00,
2014-08-27 10:39:00,71.3,61.4,30.06,ENE,72,0.0,0.0,71,0.00,,---,0.01,VWS V14.00,2014-08-27 15:39:00,
2014-08-27 10:44:00,71.5,62.0,30.05,ENE,76,1.0,1.0,72,0.00,,---,0.01,VWS V14.00,2014-08-27 15:44:00,
2014-08-27 10:49:00,72.1,61.8,30.05,ENE,57,4.0,4.0,70,0.00,,---,0.01,VWS V14.00,2014-08-27 15:49:00,
2014-08-27 10:54:00,72.2,61.1,30.05,NNE,14,0.0,0.0,68,0.00,,---,0.01,VWS V14.00,2014-08-27 15:54:00,
2014-08-27 10:59:00,72.2,61.1,30.05,NNE,26,1.0,4.0,68,0.00,,---,0.01,VWS V14.00,2014-08-27 15:59:00,
2014-08-27 11:04:00,71.9,60.8,30.05,NNW,329,0.0,5.0,68,0.00,,---,0.01,VWS V14.00,2014-08-27 16:04:00,
2014-08-27 11:09:00,72.0,60.5,30.05,ENE,57,0.0,0.0,67,0.00,,---,0.01,VWS V14.00,2014-08-27 16:09:00,
2014-08-27 11:14:00,72.0,60.0,30.06,NE,56,0.0,2.0,66,0.00,,---,0.01,VWS V14.00,2014-08-27 16:14:00,
2014-08-27 11:19:00,72.0,60.0,30.06,East,95,0.0,3.0,66,0.00,,---,0.01,VWS V14.00,2014-08-27 16:19:00,
2014-08-27 11:24:00,72.1,60.5,30.06,East,93,0.0,0.0,67,0.00,,---,0.01,VWS V14.00,2014-08-27 16:24:00,
2014-08-27 11:29:00,72.4,61.2,30.06,East,93,0.0,1.0,68,0.00,,---,0.01,VWS V14.00,2014-08-27 16:29:00,
2014-08-27 11:34:00,72.7,60.7,30.05,East,97,0.0,0.0,66,0.00,,---,0.01,VWS V14.00,2014-08-27 16:34:00,
2014-08-27 11:39:00,73.2,60.7,30.05,NE,38,0.0,5.0,65,0.00,,---,0.01,VWS V14.00,2014-08-27 16:39:00,
2014-08-27 11:44:00,73.1,60.7,30.05,NE,40,1.0,4.0,65,0.00,,---,0.01,VWS V14.00,2014-08-27 16:44:00,
2014-08-27 11:49:00,72.9,60.9,30.05,East,89,0.0,0.0,66,0.00,,---,0.01,VWS V14.00,2014-08-27 16:49:00,
2014-08-27 11:54:00,73.0,61.0,30.05,North,5,1.0,3.0,66,0.00,,---,0.01,VWS V14.00,2014-08-27 16:54:00,
2014-08-27 12:00:00,73.4,60.5,30.05,NNW,340,0.0,0.0,64,0.00,,---,0.01,VWS V14.00,2014-08-27 17:00:00,
2014-08-27 12:05:00,73.8,61.3,30.04,ENE,78,0.0,0.0,65,0.00,,---,0.01,VWS V14.00,2014-08-27 17:05:00,
2014-08-27 12:10:00,74.1,60.7,30.04,ENE,75,0.0,0.0,63,0.00,,---,0.01,VWS V14.00,2014-08-27 17:10:00,
2014-08-27 12:15:00,74.0,60.6,30.05,SE,132,0.0,3.0,63,0.00,,---,0.01,VWS V14.00,2014-08-27 17:15:00,
2014-08-27 12:20:00,74.2,62.1,30.04,ESE,121,0.0,3.0,66,0.00,,---,0.01,VWS V14.00,2014-08-27 17:20:00,
2014-08-27 12:25:00,74.3,61.3,30.04,ESE,116,1.0,3.0,64,0.00,,---,0.01,VWS V14.00,2014-08-27 17:25:00,
2014-08-27 12:30:00,74.6,61.2,30.04,East,101,0.0,1.0,63,0.00,,---,0.01,VWS V14.00,2014-08-27 17:30:00,
2014-08-27 12:35:00,74.9,61.5,30.04,East,100,0.0,1.0,63,0.00,,---,0.01,VWS V14.00,2014-08-27 17:35:00,
2014-08-27 12:40:00,75.0,60.7,30.03,East,83,0.0,1.0,61,0.00,,---,0.01,VWS V14.00,2014-08-27 17:40:00,
2014-08-27 12:45:00,75.4,61.9,30.03,ENE,67,3.0,3.0,63,0.00,,---,0.01,VWS V14.00,2014-08-27 17:45:00,
2014-08-27 12:50:00,74.9,60.1,30.03,NE,55,0.0,4.0,60,0.00,,---,0.01,VWS V14.00,2014-08-27 17:50:00,
2014-08-27 12:55:00,74.7,60.4,30.03,NE,55,0.0,0.0,61,0.00,,---,0.01,VWS V14.00,2014-08-27 17:55:00,
2014-08-27 13:00:00,74.9,61.5,30.03,NNE,15,2.0,5.0,63,0.00,,---,0.01,VWS V14.00,2014-08-27 18:00:00,
2014-08-27 13:05:00,74.9,62.3,30.03,NNW,340,0.0,4.0,65,0.00,,---,0.01,VWS V14.00,2014-08-27 18:05:00,
2014-08-27 13:10:00,74.8,61.8,30.03,North,355,0.0,0.0,64,0.00,,---,0.01,VWS V14.00,2014-08-27 18:10:00,
2014-08-27 13:15:00,74.6,61.2,30.04,North,9,0.0,1.0,63,0.00,,---,0.01,VWS V14.00,2014-08-27 18:15:00,
2014-08-27 13:20:00,74.6,60.7,30.04,NNE,15,0.0,5.0,62,0.00,,---,0.01,VWS V14.00,2014-08-27 18:20:00,
2014-08-27 13:25:00,74.5,60.6,30.04,NE,43,0.0,1.0,62,0.00,,---,0.01,VWS V14.00,2014-08-27 18:25:00,
2014-08-27 13:30:00,74.6,60.3,30.04,NE,55,0.0,3.0,61,0.00,,---,0.01,VWS V14.00,2014-08-27 18:30:00,
2014-08-27 13:35:00,74.7,59.9,30.04,ENE,74,0.0,0.0,60,0.00,,---,0.01,VWS V14.00,2014-08-27 18:35:00,
2014-08-27 13:40:00,74.6,59.3,30.04,East,100,0.0,2.0,59,0.00,,---,0.01,VWS V14.00,2014-08-27 18:40:00,
2014-08-27 13:45:00,74.6,61.2,30.04,North,355,2.0,3.0,63,0.00,,---,0.01,VWS V14.00,2014-08-27 18:45:00,
2014-08-27 13:50:00,74.8,61.4,30.03,NNE,26,0.0,0.0,63,0.00,,---,0.01,VWS V14.00,2014-08-27 18:50:00,
2014-08-27 13:55:00,74.9,61.0,30.03,NNE,26,0.0,1.0,62,0.00,,---,0.01,VWS V14.00,2014-08-27 18:55:00,
2014-08-27 14:00:00,75.4,62.4,30.03,NE,34,0.0,0.0,64,0.00,,---,0.01,VWS V14.00,2014-08-27 19:00:00,
2014-08-27 14:05:00,75.4,61.0,30.03,NNE,29,0.0,2.0,61,0.00,,---,0.01,VWS V14.00,2014-08-27 19:05:00,
2014-08-27 14:10:00,75.2,61.3,30.03,WNW,296,4.0,4.0,62,0.00,,---,0.01,VWS V14.00,2014-08-27 19:10:00,
2014-08-27 14:15:00,75.0,60.7,30.03,ENE,67,0.0,3.0,61,0.00,,---,0.01,VWS V14.00,2014-08-27 19:15:00,
2014-08-27 14:20:00,74.8,60.5,30.03,ENE,67,0.0,1.0,61,0.00,,---,0.01,VWS V14.00,2014-08-27 19:20:00,
2014-08-27 14:25:00,74.7,60.8,30.03,ESE,117,0.0,3.0,62,0.00,,---,0.01,VWS V14.00,2014-08-27 19:25:00,
2014-08-27 14:30:00,74.9,60.1,30.03,SW,222,2.0,2.0,60,0.00,,---,0.01,VWS V14.00,2014-08-27 19:30:00,
2014-08-27 14:35:00,75.2,60.4,30.03,WSW,243,0.0,1.0,60,0.00,,---,0.01,VWS V14.00,2014-08-27 19:35:00,
2014-08-27 14:40:00,75.1,60.3,30.03,WSW,242,0.0,0.0,60,0.00,,---,0.01,VWS V14.00,2014-08-27 19:40:00,
2014-08-27 14:45:00,75.2,61.3,30.03,WSW,242,0.0,1.0,62,0.00,,---,0.01,VWS V14.00,2014-08-27 19:45:00,
2014-08-27 14:50:00,75.3,62.3,30.03,West,266,1.0,1.0,64,0.00,,---,0.01,VWS V14.00,2014-08-27 19:50:00,
2014-08-27 14:55:00,75.7,61.8,30.03,NW,321,2.0,4.0,62,0.00,,---,0.01,VWS V14.00,2014-08-27 19:55:00,
2014-08-27 15:00:00,75.7,61.8,30.03,NW,321,0.0,1.0,62,0.00,,---,0.01,VWS V14.00,2014-08-27 20:00:00,
2014-08-27 15:05:00,76.0,62.0,30.02,NW,314,0.0,1.0,62,0.00,,---,0.01,VWS V14.00,2014-08-27 20:05:00,
2014-08-27 15:10:00,76.4,62.4,30.02,NW,314,0.0,0.0,62,0.00,,---,0.01,VWS V14.00,2014-08-27 20:10:00,
2014-08-27 15:16:00,76.7,62.2,30.02,NW,321,3.0,7.0,61,0.00,,---,0.01,VWS V14.00,2014-08-27 20:16:00,
2014-08-27 15:21:00,76.8,61.4,30.02,NW,319,0.0,0.0,59,0.00,,---,0.01,VWS V14.00,2014-08-27 20:21:00,
2014-08-27 15:26:00,77.0,63.0,30.02,NW,319,0.0,0.0,62,0.00,,---,0.01,VWS V14.00,2014-08-27 20:26:00,
2014-08-27 15:31:00,76.8,60.9,30.01,North,355,0.0,2.0,58,0.00,,---,0.01,VWS V14.00,2014-08-27 20:31:00,
2014-08-27 15:36:00,76.2,61.8,30.01,NNE,14,0.0,0.0,61,0.00,,---,0.01,VWS V14.00,2014-08-27 20:36:00,
2014-08-27 15:41:00,76.1,61.2,30.01,NNE,14,0.0,1.0,60,0.00,,---,0.01,VWS V14.00,2014-08-27 20:41:00,
2014-08-27 15:46:00,75.9,61.5,30.01,NNE,14,0.0,0.0,61,0.00,,---,0.01,VWS V14.00,2014-08-27 20:46:00,
2014-08-27 15:51:00,76.0,62.0,30.01,NNE,14,0.0,0.0,62,0.00,,---,0.01,VWS V14.00,2014-08-27 20:51:00,
2014-08-27 15:56:00,75.9,62.0,30.01,North,11,0.0,1.0,62,0.00,,---,0.01,VWS V14.00,2014-08-27 20:56:00,
2014-08-27 16:01:00,75.8,62.3,30.01,North,355,0.0,4.0,63,0.00,,---,0.01,VWS V14.00,2014-08-27 21:01:00,
2014-08-27 16:06:00,75.5,61.6,30.01,NNW,338,0.0,3.0,62,0.00,,---,0.01,VWS V14.00,2014-08-27 21:06:00,
2014-08-27 16:11:00,75.5,61.6,30.01,NNW,330,0.0,3.0,62,0.00,,---,0.01,VWS V14.00,2014-08-27 21:11:00,
2014-08-27 16:16:00,75.6,61.7,30.01,NNW,340,0.0,4.0,62,0.00,,---,0.01,VWS V14.00,2014-08-27 21:16:00,
2014-08-27 16:21:00,75.6,61.2,30.01,NNW,340,0.0,1.0,61,0.00,,---,0.01,VWS V14.00,2014-08-27 21:21:00,
2014-08-27 16:26:00,75.6,62.1,30.00,NE,42,0.0,3.0,63,0.00,,---,0.01,VWS V14.00,2014-08-27 21:26:00,
2014-08-27 16:31:00,75.8,61.4,30.00,NE,43,0.0,0.0,61,0.00,,---,0.01,VWS V14.00,2014-08-27 21:31:00,
2014-08-27 16:36:00,76.0,62.0,30.00,NE,42,0.0,1.0,62,0.00,,---,0.01,VWS V14.00,2014-08-27 21:36:00,
2014-08-27 16:41:00,75.8,61.9,30.00,NE,43,0.0,1.0,62,0.00,,---,0.01,VWS V14.00,2014-08-27 21:41:00,
2014-08-27 16:46:00,75.6,61.2,30.00,NNE,19,0.0,1.0,61,0.00,,---,0.01,VWS V14.00,2014-08-27 21:46:00,
2014-08-27 16:51:00,75.3,60.9,30.00,NNE,19,0.0,1.0,61,0.00,,---,0.01,VWS V14.00,2014-08-27 21:51:00,
2014-08-27 16:56:00,75.1,62.1,30.00,NNE,19,0.0,1.0,64,0.00,,---,0.01,VWS V14.00,2014-08-27 21:56:00,
2014-08-27 17:01:00,75.2,62.6,30.00,NNE,19,0.0,2.0,65,0.00,,---,0.01,VWS V14.00,2014-08-27 22:01:00,
2014-08-27 17:06:00,75.1,61.7,30.00,NNE,19,0.0,1.0,63,0.00,,---,0.01,VWS V14.00,2014-08-27 22:06:00,
2014-08-27 17:11:00,75.0,61.6,30.00,North,360,0.0,3.0,63,0.00,,---,0.01,VWS V14.00,2014-08-27 22:11:00,
2014-08-27 17:16:00,75.0,62.0,30.00,North,355,0.0,1.0,64,0.00,,---,0.01,VWS V14.00,2014-08-27 22:16:00,
2014-08-27 17:21:00,74.6,62.1,30.00,North,355,0.0,1.0,65,0.00,,---,0.01,VWS V14.00,2014-08-27 22:21:00,
2014-08-27 17:26:00,74.2,63.0,30.00,North,355,0.0,1.0,68,0.00,,---,0.01,VWS V14.00,2014-08-27 22:26:00,
2014-08-27 17:31:00,73.8,63.4,30.00,North,355,0.0,0.0,70,0.00,,---,0.01,VWS V14.00,2014-08-27 22:31:00,
2014-08-27 17:36:00,73.6,64.4,30.00,North,355,0.0,1.0,73,0.00,,---,0.01,VWS V14.00,2014-08-27 22:36:00,
2014-08-27 17:41:00,73.4,63.4,30.00,North,355,0.0,0.0,71,0.00,,---,0.01,VWS V14.00,2014-08-27 22:41:00,
2014-08-27 17:46:00,73.3,62.5,30.00,North,355,0.0,0.0,69,0.00,,---,0.01,VWS V14.00,2014-08-27 22:46:00,
2014-08-27 17:51:00,73.2,63.6,29.99,North,355,0.0,1.0,72,0.00,,---,0.01,VWS V14.00,2014-08-27 22:51:00,
2014-08-27 17:56:00,73.0,63.5,29.99,North,355,0.0,1.0,72,0.00,,---,0.01,VWS V14.00,2014-08-27 22:56:00,
2014-08-27 18:02:00,72.8,63.7,29.99,North,355,0.0,0.0,73,0.00,,---,0.01,VWS V14.00,2014-08-27 23:02:00,
2014-08-27 18:07:00,72.4,63.7,29.99,North,355,0.0,0.0,74,0.00,,---,0.01,VWS V14.00,2014-08-27 23:07:00,
2014-08-27 18:12:00,72.3,64.3,29.99,North,355,0.0,0.0,76,0.00,,---,0.01,VWS V14.00,2014-08-27 23:12:00,
2014-08-27 18:17:00,72.2,64.2,29.99,North,355,0.0,0.0,76,0.00,,---,0.01,VWS V14.00,2014-08-27 23:17:00,
2014-08-27 18:22:00,72.0,64.4,29.98,North,355,0.0,0.0,77,0.00,,---,0.01,VWS V14.00,2014-08-27 23:22:00,
2014-08-27 18:27:00,71.8,63.8,29.99,North,355,0.0,0.0,76,0.00,,---,0.01,VWS V14.00,2014-08-27 23:27:00,
2014-08-27 18:32:00,71.6,64.0,29.98,North,355,0.0,1.0,77,0.00,,---,0.01,VWS V14.00,2014-08-27 23:32:00,
2014-08-27 18:37:00,71.4,63.8,29.98,North,355,0.0,0.0,77,0.00,,---,0.01,VWS V14.00,2014-08-27 23:37:00,
2014-08-27 18:42:00,71.1,63.9,29.98,North,355,0.0,0.0,78,0.00,,---,0.01,VWS V14.00,2014-08-27 23:42:00,
2014-08-27 18:47:00,70.8,63.6,29.98,North,355,0.0,0.0,78,0.00,,---,0.01,VWS V14.00,2014-08-27 23:47:00,
2014-08-27 18:52:00,70.7,63.9,29.98,North,355,0.0,0.0,79,0.00,,---,0.01,VWS V14.00,2014-08-27 23:52:00,
2014-08-27 18:57:00,70.6,63.8,29.98,North,355,0.0,0.0,79,0.00,,---,0.01,VWS V14.00,2014-08-27 23:57:00,
2014-08-27 19:02:00,70.2,63.8,29.98,North,355,0.0,0.0,80,0.00,,---,0.01,VWS V14.00,2014-08-28 00:02:00,
2014-08-27 19:07:00,69.7,63.3,29.98,North,355,0.0,0.0,80,0.00,,---,0.01,VWS V14.00,2014-08-28 00:07:00,
2014-08-27 19:12:00,69.4,63.3,29.97,North,355,0.0,0.0,81,0.00,,---,0.01,VWS V14.00,2014-08-28 00:12:00,
2014-08-27 19:17:00,69.2,63.5,29.97,North,355,0.0,0.0,82,0.00,,---,0.01,VWS V14.00,2014-08-28 00:17:00,
2014-08-27 19:22:00,68.9,63.2,29.97,North,355,0.0,0.0,82,0.00,,---,0.01,VWS V14.00,2014-08-28 00:22:00,
2014-08-27 19:27:00,68.6,62.9,29.97,North,355,0.0,0.0,82,0.00,,---,0.01,VWS V14.00,2014-08-28 00:27:00,
2014-08-27 19:32:00,68.4,62.7,29.97,North,355,0.0,1.0,82,0.00,,---,0.01,VWS V14.00,2014-08-28 00:32:00,
2014-08-27 19:37:00,68.1,62.4,29.96,North,355,0.0,0.0,82,0.00,,---,0.01,VWS V14.00,2014-08-28 00:37:00,
2014-08-27 19:42:00,67.9,61.9,29.97,North,355,0.0,1.0,81,0.00,,---,0.01,VWS V14.00,2014-08-28 00:42:00,
2014-08-27 19:47:00,67.6,61.9,29.97,North,355,0.0,0.0,82,0.00,,---,0.01,VWS V14.00,2014-08-28 00:47:00,
2014-08-27 19:52:00,67.4,62.1,29.97,North,355,0.0,1.0,83,0.00,,---,0.01,VWS V14.00,2014-08-28 00:52:00,
2014-08-27 19:57:00,67.1,61.8,29.97,North,355,0.0,0.0,83,0.00,,---,0.01,VWS V14.00,2014-08-28 00:57:00,
2014-08-27 20:02:00,66.9,61.9,29.97,North,355,0.0,0.0,84,0.00,,---,0.01,VWS V14.00,2014-08-28 01:02:00,
2014-08-27 20:07:00,66.6,61.6,29.97,North,355,0.0,0.0,84,0.00,,---,0.01,VWS V14.00,2014-08-28 01:07:00,
2014-08-27 20:12:00,66.1,61.5,29.97,North,355,0.0,0.0,85,0.00,,---,0.01,VWS V14.00,2014-08-28 01:12:00,
2014-08-27 20:17:00,65.7,61.1,29.97,North,355,0.0,0.0,85,0.00,,---,0.01,VWS V14.00,2014-08-28 01:17:00,
2014-08-27 20:22:00,65.4,61.1,29.97,North,355,0.0,0.0,86,0.00,,---,0.01,VWS V14.00,2014-08-28 01:22:00,
2014-08-27 20:27:00,65.1,60.8,29.97,North,355,0.0,0.0,86,0.00,,---,0.01,VWS V14.00,2014-08-28 01:27:00,
2014-08-27 20:32:00,64.9,60.9,29.98,North,355,0.0,0.0,87,0.00,,---,0.01,VWS V14.00,2014-08-28 01:32:00,
2014-08-27 20:37:00,64.8,60.8,29.98,North,355,0.0,0.0,87,0.00,,---,0.01,VWS V14.00,2014-08-28 01:37:00,
2014-08-27 20:42:00,64.6,61.0,29.98,North,355,0.0,0.0,88,0.00,,---,0.01,VWS V14.00,2014-08-28 01:42:00,
2014-08-27 20:47:00,64.3,60.7,29.98,North,355,0.0,0.0,88,0.00,,---,0.01,VWS V14.00,2014-08-28 01:47:00,
2014-08-27 20:52:00,64.1,60.8,29.98,North,355,0.0,0.0,89,0.00,,---,0.01,VWS V14.00,2014-08-28 01:52:00,
2014-08-27 20:57:00,63.8,60.8,29.99,North,355,0.0,0.0,90,0.00,,---,0.01,VWS V14.00,2014-08-28 01:57:00,
2014-08-27 21:02:00,63.6,60.6,29.99,North,355,0.0,0.0,90,0.00,,---,0.01,VWS V14.00,2014-08-28 02:02:00,
2014-08-27 21:07:00,63.4,60.4,29.99,North,355,0.0,0.0,90,0.00,,---,0.01,VWS V14.00,2014-08-28 02:07:00,
2014-08-27 21:12:00,63.2,60.2,29.99,North,355,0.0,0.0,90,0.00,,---,0.01,VWS V14.00,2014-08-28 02:12:00,
2014-08-27 21:17:00,63.1,60.4,29.99,North,355,0.0,0.0,91,0.00,,---,0.01,VWS V14.00,2014-08-28 02:17:00,
2014-08-27 21:22:00,63.1,60.4,29.99,North,355,0.0,0.0,91,0.00,,---,0.01,VWS V14.00,2014-08-28 02:22:00,
2014-08-27 21:27:00,62.9,60.5,30.00,North,355,0.0,0.0,92,0.00,,---,0.01,VWS V14.00,2014-08-28 02:27:00,
2014-08-27 21:32:00,62.8,60.5,30.00,North,355,0.0,0.0,92,0.00,,---,0.01,VWS V14.00,2014-08-28 02:32:00,
2014-08-27 21:37:00,62.8,60.5,30.00,North,355,0.0,0.0,92,0.00,,---,0.01,VWS V14.00,2014-08-28 02:37:00,
2014-08-27 21:42:00,62.7,60.3,30.00,North,355,0.0,0.0,92,0.00,,---,0.01,VWS V14.00,2014-08-28 02:42:00,
2014-08-27 21:47:00,62.3,60.2,30.00,North,355,0.0,0.0,93,0.00,,---,0.01,VWS V14.00,2014-08-28 02:47:00,
2014-08-27 21:53:00,62.3,60.2,30.01,North,355,0.0,0.0,93,0.00,,---,0.01,VWS V14.00,2014-08-28 02:53:00,
2014-08-27 21:58:00,62.3,60.2,30.01,North,355,0.0,0.0,93,0.00,,---,0.01,VWS V14.00,2014-08-28 02:58:00,
2014-08-27 22:03:00,62.2,60.2,30.00,North,355,0.0,0.0,93,0.00,,---,0.01,VWS V14.00,2014-08-28 03:03:00,
2014-08-27 22:08:00,61.9,59.9,30.00,North,355,0.0,0.0,93,0.00,,---,0.01,VWS V14.00,2014-08-28 03:08:00,
2014-08-27 22:13:00,61.7,59.7,30.00,North,355,0.0,0.0,93,0.00,,---,0.01,VWS V14.00,2014-08-28 03:13:00,
2014-08-27 22:18:00,61.6,59.6,30.00,North,355,0.0,0.0,93,0.00,,---,0.01,VWS V14.00,2014-08-28 03:18:00,
2014-08-27 22:23:00,61.5,59.5,30.01,North,355,0.0,0.0,93,0.00,,---,0.01,VWS V14.00,2014-08-28 03:23:00,
2014-08-27 22:28:00,61.4,59.7,30.01,North,355,0.0,0.0,94,0.00,,---,0.01,VWS V14.00,2014-08-28 03:28:00,
2014-08-27 22:33:00,61.2,59.5,30.01,North,355,0.0,0.0,94,0.00,,---,0.01,VWS V14.00,2014-08-28 03:33:00,
2014-08-27 22:38:00,61.1,59.4,30.01,North,355,0.0,0.0,94,0.00,,---,0.01,VWS V14.00,2014-08-28 03:38:00,
2014-08-27 22:43:00,60.9,59.2,30.01,North,355,0.0,0.0,94,0.00,,---,0.01,VWS V14.00,2014-08-28 03:43:00,
2014-08-27 22:48:00,60.9,59.2,30.01,North,355,0.0,0.0,94,0.00,,---,0.01,VWS V14.00,2014-08-28 03:48:00,
2014-08-27 22:53:00,60.7,59.0,30.01,North,355,0.0,0.0,94,0.00,,---,0.01,VWS V14.00,2014-08-28 03:53:00,
2014-08-27 22:58:00,60.7,59.0,30.01,North,355,0.0,0.0,94,0.00,,---,0.01,VWS V14.00,2014-08-28 03:58:00,
2014-08-27 23:01:00,60.6,58.9,30.01,North,355,0.0,0.0,94,0.00,,---,0.01,VWS V14.00,2014-08-28 04:01:00,
2014-08-27 23:03:00,60.6,58.9,30.01,North,355,0.0,0.0,94,0.00,,---,0.01,VWS V14.00,2014-08-28 04:03:00,
2014-08-27 23:08:00,60.6,58.9,30.01,North,355,0.0,0.0,94,0.00,,---,0.01,VWS V14.00,2014-08-28 04:08:00,
2014-08-27 23:13:00,60.4,58.7,30.01,North,355,0.0,0.0,94,0.00,,---,0.01,VWS V14.00,2014-08-28 04:13:00,
2014-08-27 23:18:00,60.2,58.8,30.01,North,355,0.0,0.0,95,0.00,,---,0.01,VWS V14.00,2014-08-28 04:18:00,
2014-08-27 23:23:00,60.1,58.7,30.01,North,355,0.0,0.0,95,0.00,,---,0.01,VWS V14.00,2014-08-28 04:23:00,
2014-08-27 23:28:00,60.0,58.6,30.01,North,355,0.0,0.0,95,0.00,,---,0.01,VWS V14.00,2014-08-28 04:28:00,
2014-08-27 23:33:00,60.0,58.6,30.01,North,355,0.0,0.0,95,0.00,,---,0.01,VWS V14.00,2014-08-28 04:33:00,